Time;durP1;ratioP1;P1;durP2;ratioP2;P2;SDS_P1;SDS_P2;PMS_P1;PMS_P2;Temp;Humidity;BMP_temperature;BMP_pressure;BME280_temperature;BME280_humidity;BME280_pressure;Samples;Min_cycle;Max_cycle;Signal;HPM_P1;HPM_P2
2023/12/13 06:01:33;;;;;;;2.07;1.93;;;;;;;;;;5874261;23;20607;-77
2023/12/13 06:03:59;;;;;;;4.47;2.07;;;;;;;;;;5016562;28;20426;-77
2023/12/13 06:06:25;;;;;;;5.00;2.27;;;;;;;;;;5033903;28;20414;-76
2023/12/13 06:08:51;;;;;;;1.90;1.50;;;;;;;;;;5034230;28;20405;-77
2023/12/13 06:11:17;;;;;;;6.27;2.50;;;;;;;;;;5025909;28;20544;-77
2023/12/13 06:13:43;;;;;;;3.57;2.17;;;;;;;;;;5015511;28;20489;-76
2023/12/13 06:16:12;;;;;;;7.57;2.70;;;;;;;;;;5015727;28;20403;-77
2023/12/13 06:18:39;;;;;;;3.27;1.80;;;;;;;;;;5002532;28;20426;-77
2023/12/13 06:21:06;;;;;;;5.67;2.13;;;;;;;;;;5011117;28;20585;-77
2023/12/13 06:23:32;;;;;;;7.33;2.23;;;;;;;;;;4982590;28;20423;-77
2023/12/13 06:25:58;;;;;;;5.73;2.40;;;;;;;;;;4998244;28;20778;-77
2023/12/13 06:28:24;;;;;;;6.00;2.70;;;;;;;;;;4979611;28;20932;-77
2023/12/13 06:30:50;;;;;;;6.10;2.47;;;;;;;;;;4979946;28;20546;-78
2023/12/13 06:33:18;;;;;;;5.43;2.10;;;;;;;;;;5010651;28;20906;-77
2023/12/13 06:35:44;;;;;;;6.07;2.60;;;;;;;;;;5025274;28;20418;-77
2023/12/13 06:38:10;;;;;;;7.33;2.67;;;;;;;;;;5023555;28;20406;-77
2023/12/13 06:40:36;;;;;;;6.77;2.83;;;;;;;;;;5002389;28;20477;-77
2023/12/13 06:43:02;;;;;;;5.00;2.60;;;;;;;;;;5020272;28;20425;-78
2023/12/13 06:45:28;;;;;;;13.97;3.10;;;;;;;;;;5020200;28;20420;-77
2023/12/13 06:47:54;;;;;;;8.83;3.07;;;;;;;;;;4999911;28;20501;-77
2023/12/13 06:50:20;;;;;;;7.27;3.63;;;;;;;;;;5016693;28;20509;-77
2023/12/13 06:52:47;;;;;;;6.00;2.80;;;;;;;;;;5014781;28;20437;-77
2023/12/13 06:55:13;;;;;;;7.07;2.80;;;;;;;;;;5013976;28;20417;-77
2023/12/13 06:57:39;;;;;;;4.50;3.50;;;;;;;;;;5014300;28;20422;-77
2023/12/13 07:00:08;;;;;;;8.33;3.60;;;;;;;;;;5006911;28;20513;-77
2023/12/13 07:02:34;;;;;;;8.73;2.90;;;;;;;;;;5001519;28;20457;-77
2023/12/13 07:05:00;;;;;;;9.73;3.73;;;;;;;;;;5008600;28;20434;-77
2023/12/13 07:07:26;;;;;;;7.23;3.40;;;;;;;;;;5019994;28;20413;-77
2023/12/13 07:09:52;;;;;;;9.93;3.60;;;;;;;;;;5018809;28;20454;-77
2023/12/13 07:12:18;;;;;;;8.43;3.27;;;;;;;;;;5015124;28;20434;-76
2023/12/13 07:14:45;;;;;;;9.03;2.63;;;;;;;;;;4997901;28;20817;-78
2023/12/13 07:17:11;;;;;;;4.80;2.70;;;;;;;;;;5017743;28;20452;-79
2023/12/13 07:19:38;;;;;;;11.23;4.50;;;;;;;;;;5001569;28;20421;-78
2023/12/13 07:22:04;;;;;;;8.80;3.70;;;;;;;;;;4989028;28;20813;-78
2023/12/13 07:24:30;;;;;;;9.97;4.47;;;;;;;;;;4983106;28;20506;-78
2023/12/13 07:26:56;;;;;;;6.97;3.27;;;;;;;;;;5002507;28;20960;-79
2023/12/13 07:29:22;;;;;;;8.73;3.13;;;;;;;;;;4993192;28;20458;-75
2023/12/13 07:31:47;;;;;;;8.00;3.53;;;;;;;;;;5012036;28;20442;-74
2023/12/13 07:34:13;;;;;;;6.40;2.70;;;;;;;;;;4995208;28;20501;-73
2023/12/13 07:36:42;;;;;;;4.70;2.60;;;;;;;;;;5011696;28;20429;-71
2023/12/13 07:39:08;;;;;;;6.50;2.80;;;;;;;;;;5011591;28;20503;-70
2023/12/13 07:41:34;;;;;;;9.70;2.80;;;;;;;;;;4994172;28;20866;-70
2023/12/13 07:44:00;;;;;;;3.67;1.90;;;;;;;;;;5012070;28;20410;-69
2023/12/13 07:46:26;;;;;;;4.23;2.87;;;;;;;;;;5012087;28;20767;-69
2023/12/13 07:48:52;;;;;;;4.50;2.30;;;;;;;;;;5003076;28;20901;-73
2023/12/13 07:51:18;;;;;;;4.80;2.60;;;;;;;;;;4992303;28;20837;-76
2023/12/13 07:53:44;;;;;;;4.83;2.20;;;;;;;;;;4992676;28;20414;-76
2023/12/13 07:56:10;;;;;;;2.97;1.90;;;;;;;;;;4992362;28;20407;-77
2023/12/13 07:58:36;;;;;;;4.40;2.20;;;;;;;;;;4992458;28;20890;-76
2023/12/13 08:01:02;;;;;;;10.43;2.27;;;;;;;;;;4992310;28;20439;-76
2023/12/13 08:03:28;;;;;;;4.40;1.90;;;;;;;;;;4992618;28;20411;-77
2023/12/13 08:05:54;;;;;;;3.90;2.20;;;;;;;;;;5002536;28;20871;-76
2023/12/13 08:08:20;;;;;;;7.80;2.70;;;;;;;;;;5001481;28;20481;-77
2023/12/13 08:10:46;;;;;;;6.10;2.30;;;;;;;;;;5007381;28;20496;-74
2023/12/13 08:13:12;;;;;;;4.00;2.37;;;;;;;;;;4994776;28;20449;-78
2023/12/13 08:15:38;;;;;;;3.07;1.80;;;;;;;;;;4993124;28;20426;-79
2023/12/13 08:18:04;;;;;;;3.07;1.50;;;;;;;;;;5014571;28;20739;-79
2023/12/13 08:20:30;;;;;;;6.40;2.30;;;;;;;;;;5013113;28;20913;-79
2023/12/13 08:23:03;;;;;;;2.23;2.00;;;;;;;;;;4993950;28;20433;-79
2023/12/13 08:25:29;;;;;;;9.30;2.47;;;;;;;;;;5010644;28;20419;-80
2023/12/13 08:27:55;;;;;;;3.97;2.20;;;;;;;;;;5021062;28;20457;-79
2023/12/13 08:30:21;;;;;;;2.53;1.87;;;;;;;;;;4994174;28;20509;-73
2023/12/13 08:32:47;;;;;;;2.87;1.83;;;;;;;;;;5000497;28;20419;-73
2023/12/13 08:35:13;;;;;;;6.10;1.90;;;;;;;;;;5009547;28;20968;-79
2023/12/13 08:37:39;;;;;;;5.23;1.97;;;;;;;;;;5002689;28;20770;-78
2023/12/13 08:40:05;;;;;;;4.20;1.90;;;;;;;;;;5011432;28;20422;-78
2023/12/13 08:42:31;;;;;;;6.33;1.80;;;;;;;;;;5016848;28;20465;-77
2023/12/13 08:44:57;;;;;;;4.23;2.03;;;;;;;;;;5017379;28;20469;-77
2023/12/13 08:47:23;;;;;;;5.03;2.40;;;;;;;;;;5013448;28;20578;-77
2023/12/13 08:49:49;;;;;;;20.60;3.90;;;;;;;;;;5012036;28;20965;-77
2023/12/13 08:52:18;;;;;;;3.53;2.43;;;;;;;;;;4988984;28;20581;-77
2023/12/13 08:54:44;;;;;;;4.30;1.77;;;;;;;;;;4999217;28;20418;-77
2023/12/13 08:57:10;;;;;;;4.10;2.00;;;;;;;;;;4984942;28;20517;-77
2023/12/13 08:59:35;;;;;;;7.63;2.10;;;;;;;;;;4993987;28;20422;-77
2023/12/13 09:02:02;;;;;;;2.70;1.90;;;;;;;;;;5011902;28;20496;-77
2023/12/13 09:04:28;;;;;;;4.63;1.80;;;;;;;;;;4994258;28;20422;-77
2023/12/13 09:06:54;;;;;;;4.17;1.70;;;;;;;;;;5019977;28;20468;-77
2023/12/13 09:09:20;;;;;;;7.43;1.77;;;;;;;;;;5009269;28;20982;-77
2023/12/13 09:11:47;;;;;;;4.90;1.90;;;;;;;;;;5015096;28;20490;-77
2023/12/13 09:14:13;;;;;;;3.23;2.00;;;;;;;;;;4999931;28;20434;-77
2023/12/13 09:16:39;;;;;;;2.90;1.80;;;;;;;;;;4981878;28;20914;-76
2023/12/13 09:19:06;;;;;;;5.80;2.40;;;;;;;;;;5008391;28;20410;-77
2023/12/13 09:21:32;;;;;;;5.87;2.20;;;;;;;;;;5015087;28;20438;-76
2023/12/13 09:23:58;;;;;;;2.90;1.70;;;;;;;;;;4997649;28;20476;-76
2023/12/13 09:26:24;;;;;;;3.73;1.90;;;;;;;;;;4997723;28;20427;-77
2023/12/13 09:28:50;;;;;;;6.83;1.93;;;;;;;;;;5015519;28;20556;-77
2023/12/13 09:31:17;;;;;;;5.57;2.37;;;;;;;;;;5014710;28;20499;-77
2023/12/13 09:33:43;;;;;;;2.37;1.77;;;;;;;;;;4978187;28;20434;-77
2023/12/13 09:36:09;;;;;;;6.60;2.60;;;;;;;;;;5004311;28;20415;-76
2023/12/13 09:38:35;;;;;;;7.73;2.23;;;;;;;;;;5003217;28;20422;-76
2023/12/13 09:41:02;;;;;;;6.47;2.13;;;;;;;;;;5014282;28;20438;-77
2023/12/13 09:43:27;;;;;;;6.80;2.63;;;;;;;;;;5014872;28;20456;-77
2023/12/13 09:45:54;;;;;;;3.93;2.80;;;;;;;;;;4997360;28;20948;-77
2023/12/13 09:48:22;;;;;;;3.83;2.00;;;;;;;;;;5005132;28;20418;-77
2023/12/13 09:50:53;;;;;;;10.83;3.03;;;;;;;;;;4997568;28;20489;-78
2023/12/13 09:53:20;;;;;;;5.43;2.40;;;;;;;;;;5015089;28;20428;-79
2023/12/13 09:55:47;;;;;;;8.00;2.63;;;;;;;;;;5006394;28;20453;-79
2023/12/13 09:58:13;;;;;;;5.70;2.40;;;;;;;;;;5016460;28;20421;-79
2023/12/13 10:00:41;;;;;;;3.53;2.00;;;;;;;;;;5018413;28;20440;-78
2023/12/13 10:03:07;;;;;;;5.63;2.23;;;;;;;;;;5015642;28;20439;-78
2023/12/13 10:05:34;;;;;;;48.70;15.67;;;;;;;;;;5006522;28;20435;-79
2023/12/13 10:08:02;;;;;;;6.43;2.40;;;;;;;;;;5000170;28;20557;-79
2023/12/13 10:10:31;;;;;;;3.00;1.70;;;;;;;;;;4997541;28;20556;-80
2023/12/13 10:12:58;;;;;;;8.13;3.30;;;;;;;;;;5015959;28;20436;-77
2023/12/13 10:15:28;;;;;;;5.70;2.30;;;;;;;;;;5002632;28;20415;-77
2023/12/13 10:17:54;;;;;;;5.20;2.13;;;;;;;;;;5005744;28;20424;-79
2023/12/13 10:20:21;;;;;;;2.97;1.70;;;;;;;;;;5013689;28;20418;-77
2023/12/13 10:22:47;;;;;;;4.60;1.80;;;;;;;;;;5014152;28;20442;-77
2023/12/13 10:25:13;;;;;;;3.87;2.30;;;;;;;;;;5013957;28;20787;-76
2023/12/13 10:27:41;;;;;;;5.13;1.80;;;;;;;;;;5013413;28;20468;-77
2023/12/13 10:30:10;;;;;;;3.97;2.20;;;;;;;;;;5013714;28;20827;-79
2023/12/13 10:32:36;;;;;;;6.07;2.13;;;;;;;;;;5011838;28;20423;-77
2023/12/13 10:35:04;;;;;;;6.70;2.57;;;;;;;;;;5013212;28;20901;-77
2023/12/13 10:37:31;;;;;;;4.93;2.00;;;;;;;;;;4994960;28;20414;-77
2023/12/13 10:39:57;;;;;;;3.50;2.03;;;;;;;;;;4996004;28;20426;-78
2023/12/13 10:42:24;;;;;;;8.27;3.10;;;;;;;;;;5008677;28;20438;-78
2023/12/13 10:44:51;;;;;;;7.73;1.87;;;;;;;;;;5015045;28;20414;-78
2023/12/13 10:47:20;;;;;;;4.70;2.10;;;;;;;;;;5003559;28;20444;-78
2023/12/13 10:49:46;;;;;;;2.37;2.00;;;;;;;;;;5013069;28;20501;-77
2023/12/13 10:52:12;;;;;;;6.80;2.40;;;;;;;;;;5009450;28;20526;-77
2023/12/13 10:54:38;;;;;;;5.77;1.73;;;;;;;;;;5005038;28;20501;-77
2023/12/13 10:57:05;;;;;;;2.03;1.70;;;;;;;;;;5020144;28;20442;-77
2023/12/13 10:59:31;;;;;;;4.80;2.10;;;;;;;;;;5014220;28;20491;-78
2023/12/13 11:01:58;;;;;;;5.10;2.10;;;;;;;;;;4990685;28;20943;-75
2023/12/13 11:04:25;;;;;;;7.63;2.63;;;;;;;;;;5018850;28;20939;-80
2023/12/13 11:06:51;;;;;;;4.73;2.13;;;;;;;;;;5012930;28;20423;-80
2023/12/13 11:09:20;;;;;;;2.43;2.10;;;;;;;;;;5015721;28;20441;-78
2023/12/13 11:11:46;;;;;;;3.40;2.17;;;;;;;;;;5034709;28;20457;-79
2023/12/13 11:14:15;;;;;;;2.40;1.87;;;;;;;;;;5014981;28;20426;-77
2023/12/13 11:16:45;;;;;;;3.33;2.13;;;;;;;;;;5033687;28;20532;-77
2023/12/13 11:19:12;;;;;;;6.10;2.27;;;;;;;;;;5019457;28;20403;-78
2023/12/13 11:21:38;;;;;;;4.90;1.90;;;;;;;;;;5013012;28;20466;-79
2023/12/13 11:24:12;;;;;;;2.50;1.70;;;;;;;;;;4994593;28;20468;-78
2023/12/13 11:26:42;;;;;;;1.83;1.80;;;;;;;;;;5000245;28;20429;-79
2023/12/13 11:29:15;;;;;;;2.20;1.60;;;;;;;;;;4998253;28;20433;-78
2023/12/13 11:31:59;;;;;;;3.50;1.80;;;;;;;;;;5020662;28;20433;-75
2023/12/13 11:34:34;;;;;;;4.70;1.67;;;;;;;;;;5020701;28;20402;-73
2023/12/13 11:37:01;;;;;;;3.80;2.33;;;;;;;;;;5020086;28;20451;-79
2023/12/13 11:39:28;;;;;;;9.10;1.97;;;;;;;;;;5024401;28;20429;-79
2023/12/13 11:41:54;;;;;;;3.87;2.00;;;;;;;;;;5017094;28;20524;-80
2023/12/13 11:44:20;;;;;;;1.70;1.47;;;;;;;;;;5017867;28;20438;-78
2023/12/13 11:46:53;;;;;;;4.23;1.77;;;;;;;;;;5017080;28;20757;-80
2023/12/13 11:49:19;;;;;;;7.97;2.20;;;;;;;;;;4995539;28;20805;-77
2023/12/13 11:51:47;;;;;;;2.07;1.70;;;;;;;;;;5012205;28;20446;-73
2023/12/13 11:54:14;;;;;;;5.33;2.37;;;;;;;;;;4994492;28;20949;-74
2023/12/13 11:56:44;;;;;;;3.40;1.70;;;;;;;;;;5012443;28;20414;-73
2023/12/13 11:59:10;;;;;;;2.90;1.57;;;;;;;;;;5012177;28;20410;-75
2023/12/13 12:01:36;;;;;;;4.93;1.80;;;;;;;;;;5011898;28;20449;-73
2023/12/13 12:04:02;;;;;;;10.50;2.50;;;;;;;;;;5012239;28;20484;-74
2023/12/13 12:06:28;;;;;;;2.30;1.33;;;;;;;;;;5012059;28;20488;-73
2023/12/13 12:08:54;;;;;;;3.77;1.73;;;;;;;;;;5011780;28;20448;-74
2023/12/13 12:11:20;;;;;;;2.40;1.73;;;;;;;;;;5011591;28;20564;-74
2023/12/13 12:13:46;;;;;;;4.90;1.60;;;;;;;;;;5011932;28;20425;-74
2023/12/13 12:16:12;;;;;;;4.53;1.70;;;;;;;;;;5017049;23;20652;-72
2023/12/13 12:18:38;;;;;;;1.80;1.27;;;;;;;;;;4988720;28;20404;-72
2023/12/13 12:21:06;;;;;;;1.60;1.20;;;;;;;;;;4983785;28;20411;-71
2023/12/13 12:23:32;;;;;;;5.70;1.40;;;;;;;;;;4992060;28;20480;-71
2023/12/13 12:25:58;;;;;;;1.70;1.40;;;;;;;;;;4987011;28;20522;-72
2023/12/13 12:28:26;;;;;;;1.90;1.20;;;;;;;;;;4962632;28;20918;-71
2023/12/13 12:30:52;;;;;;;3.07;1.67;;;;;;;;;;4991823;28;20473;-72
2023/12/13 12:33:18;;;;;;;2.97;1.70;;;;;;;;;;4991942;28;20419;-72
2023/12/13 12:35:45;;;;;;;6.43;1.50;;;;;;;;;;4991790;28;20605;-72
2023/12/13 12:38:11;;;;;;;7.60;2.10;;;;;;;;;;4991695;28;20493;-71
2023/12/13 12:40:37;;;;;;;2.97;1.97;;;;;;;;;;4991805;28;20941;-72
2023/12/13 12:43:03;;;;;;;2.27;1.37;;;;;;;;;;4992574;28;20489;-70
2023/12/13 12:45:29;;;;;;;3.10;1.47;;;;;;;;;;4995483;28;20430;-72
2023/12/13 12:47:55;;;;;;;2.10;1.20;;;;;;;;;;4995509;28;20427;-73
2023/12/13 12:50:21;;;;;;;5.17;1.50;;;;;;;;;;4995236;28;20462;-72
2023/12/13 12:52:47;;;;;;;1.90;1.20;;;;;;;;;;4995785;28;20467;-72
2023/12/13 12:55:13;;;;;;;2.90;1.67;;;;;;;;;;4995964;28;20445;-73
2023/12/13 12:57:39;;;;;;;1.17;1.10;;;;;;;;;;4995932;28;20448;-73
2023/12/13 13:00:05;;;;;;;2.20;1.40;;;;;;;;;;4976489;28;20426;-73
2023/12/13 13:02:31;;;;;;;2.50;1.20;;;;;;;;;;4959687;28;20458;-74
2023/12/13 13:04:57;;;;;;;4.20;1.37;;;;;;;;;;4996164;28;20446;-73
2023/12/13 13:07:23;;;;;;;1.63;0.93;;;;;;;;;;4990524;28;20481;-74
2023/12/13 13:09:49;;;;;;;2.57;1.23;;;;;;;;;;4989167;28;20465;-73
2023/12/13 13:12:15;;;;;;;4.70;1.30;;;;;;;;;;4995419;28;20499;-73
2023/12/13 13:14:41;;;;;;;4.30;1.60;;;;;;;;;;4982613;28;20770;-73
2023/12/13 13:17:07;;;;;;;4.27;2.20;;;;;;;;;;4995223;28;20806;-73
2023/12/13 13:19:33;;;;;;;5.90;2.80;;;;;;;;;;4994273;28;20757;-74
2023/12/13 13:21:59;;;;;;;12.30;3.03;;;;;;;;;;4994994;28;20847;-73
2023/12/13 13:24:25;;;;;;;9.10;2.70;;;;;;;;;;4982495;28;20436;-73
2023/12/13 13:26:51;;;;;;;2.20;1.63;;;;;;;;;;4959158;28;20508;-73
2023/12/13 13:29:17;;;;;;;2.70;1.57;;;;;;;;;;4990241;28;20511;-73
2023/12/13 13:31:43;;;;;;;3.00;2.40;;;;;;;;;;4994830;28;20525;-74
2023/12/13 13:34:08;;;;;;;3.90;2.30;;;;;;;;;;4995762;28;20426;-74
2023/12/13 13:36:34;;;;;;;6.80;2.30;;;;;;;;;;4995992;28;20447;-74
2023/12/13 13:39:00;;;;;;;2.13;1.60;;;;;;;;;;4995399;28;20423;-74
2023/12/13 13:41:28;;;;;;;8.10;2.23;;;;;;;;;;4995882;28;20419;-74
2023/12/13 13:43:54;;;;;;;4.43;1.70;;;;;;;;;;4991935;28;20455;-75
2023/12/13 13:46:20;;;;;;;1.47;1.10;;;;;;;;;;4989190;28;20438;-73
2023/12/13 13:48:46;;;;;;;2.23;1.73;;;;;;;;;;4980697;28;20423;-74
2023/12/13 13:51:13;;;;;;;1.93;1.27;;;;;;;;;;4976098;28;20510;-77
2023/12/13 13:53:39;;;;;;;4.10;1.20;;;;;;;;;;4985063;28;20458;-77
2023/12/13 13:56:05;;;;;;;5.20;1.47;;;;;;;;;;4995503;28;20427;-75
2023/12/13 13:58:31;;;;;;;5.73;1.57;;;;;;;;;;4994118;28;20486;-74
2023/12/13 14:00:57;;;;;;;3.37;1.43;;;;;;;;;;4993895;28;20914;-73
2023/12/13 14:03:23;;;;;;;1.27;1.20;;;;;;;;;;4977026;28;20427;-71
2023/12/13 14:05:49;;;;;;;1.70;1.60;;;;;;;;;;4978696;28;20479;-71
2023/12/13 14:08:15;;;;;;;3.80;1.30;;;;;;;;;;4989166;28;20434;-73
2023/12/13 14:10:41;;;;;;;2.10;1.37;;;;;;;;;;4994554;28;21024;-71
2023/12/13 14:13:11;;;;;;;1.30;1.20;;;;;;;;;;4994293;28;20449;-71
2023/12/13 14:15:37;;;;;;;1.80;1.07;;;;;;;;;;4985532;28;20462;-72
2023/12/13 14:18:10;;;;;;;2.00;1.23;;;;;;;;;;4976521;28;20463;-72
2023/12/13 14:20:37;;;;;;;2.77;1.50;;;;;;;;;;4977937;28;20416;-72
2023/12/13 14:23:03;;;;;;;1.90;1.37;;;;;;;;;;4988796;28;20490;-74
2023/12/13 14:25:29;;;;;;;1.90;1.47;;;;;;;;;;5008127;28;20438;-75
2023/12/13 14:27:56;;;;;;;3.07;1.60;;;;;;;;;;5006985;28;20476;-75
2023/12/13 14:30:22;;;;;;;6.23;1.77;;;;;;;;;;4995807;28;20463;-78
2023/12/13 14:32:49;;;;;;;5.03;1.40;;;;;;;;;;4978019;28;20926;-75
2023/12/13 14:35:15;;;;;;;4.40;1.40;;;;;;;;;;4969573;28;20466;-75
2023/12/13 14:37:42;;;;;;;7.43;1.50;;;;;;;;;;4983536;28;20970;-75
2023/12/13 14:40:11;;;;;;;3.00;1.77;;;;;;;;;;4995358;28;20427;-77
2023/12/13 14:42:37;;;;;;;5.20;2.80;;;;;;;;;;4994234;28;20473;-74
2023/12/13 14:45:04;;;;;;;5.97;2.73;;;;;;;;;;4979321;28;20443;-75
2023/12/13 14:47:31;;;;;;;3.13;2.57;;;;;;;;;;4981373;28;20771;-75
2023/12/13 14:49:57;;;;;;;7.50;3.50;;;;;;;;;;4986637;28;20463;-77
2023/12/13 14:52:23;;;;;;;2.80;1.93;;;;;;;;;;4991817;28;20922;-74
2023/12/13 14:54:49;;;;;;;2.20;1.60;;;;;;;;;;4981045;28;20440;-74
2023/12/13 14:57:17;;;;;;;1.83;1.73;;;;;;;;;;4974662;28;20950;-73
2023/12/13 14:59:43;;;;;;;2.07;1.17;;;;;;;;;;4989981;28;20470;-73
2023/12/13 15:02:09;;;;;;;2.53;1.63;;;;;;;;;;4994730;28;20881;-73
2023/12/13 15:04:36;;;;;;;1.57;1.57;;;;;;;;;;4995387;28;20918;-73
2023/12/13 15:07:02;;;;;;;4.83;2.20;;;;;;;;;;4977052;28;20423;-73
2023/12/13 15:09:28;;;;;;;1.70;1.60;;;;;;;;;;4966619;28;20947;-73
2023/12/13 15:11:54;;;;;;;3.97;2.10;;;;;;;;;;4978468;28;20454;-73
2023/12/13 15:14:20;;;;;;;2.83;2.10;;;;;;;;;;4993333;28;20446;-72
2023/12/13 15:16:47;;;;;;;3.10;2.60;;;;;;;;;;4993381;28;20411;-74
2023/12/13 15:19:13;;;;;;;3.53;2.23;;;;;;;;;;4993365;28;20437;-73
2023/12/13 15:21:39;;;;;;;5.83;2.73;;;;;;;;;;4993274;28;20886;-73
2023/12/13 15:24:05;;;;;;;2.60;2.00;;;;;;;;;;4992967;28;20493;-75
2023/12/13 15:26:31;;;;;;;4.63;1.70;;;;;;;;;;4993196;28;20506;-75
2023/12/13 15:28:59;;;;;;;5.30;2.40;;;;;;;;;;4989011;28;20868;-75
2023/12/13 15:31:25;;;;;;;9.53;2.03;;;;;;;;;;4974016;28;20463;-76
2023/12/13 15:33:51;;;;;;;4.00;2.07;;;;;;;;;;4985971;28;20431;-74
2023/12/13 15:36:17;;;;;;;4.20;2.00;;;;;;;;;;4993578;28;20531;-74
2023/12/13 15:38:43;;;;;;;1.57;1.50;;;;;;;;;;4993402;28;20419;-76
2023/12/13 15:41:09;;;;;;;2.23;1.97;;;;;;;;;;4995082;28;20414;-78
2023/12/13 15:43:35;;;;;;;5.47;2.47;;;;;;;;;;4993131;28;20419;-76
2023/12/13 15:46:01;;;;;;;2.30;2.13;;;;;;;;;;4992629;28;20505;-77
2023/12/13 15:48:27;;;;;;;2.53;1.80;;;;;;;;;;4993640;28;20419;-77
2023/12/13 15:50:53;;;;;;;5.77;2.20;;;;;;;;;;4991404;28;20486;-77
2023/12/13 15:53:20;;;;;;;2.37;2.17;;;;;;;;;;4993668;28;20407;-78
2023/12/13 15:55:46;;;;;;;5.80;2.03;;;;;;;;;;4993477;28;20874;-76
2023/12/13 15:58:12;;;;;;;5.93;2.53;;;;;;;;;;4987461;28;20505;-76
2023/12/13 16:00:39;;;;;;;6.53;2.60;;;;;;;;;;4992893;28;20952;-75
2023/12/13 16:03:05;;;;;;;3.87;2.43;;;;;;;;;;4992904;28;20916;-75
2023/12/13 16:05:31;;;;;;;2.70;2.40;;;;;;;;;;4988604;28;20527;-76
2023/12/13 16:07:57;;;;;;;29.53;13.90;;;;;;;;;;4979096;28;20419;-75
2023/12/13 16:10:23;;;;;;;33.60;14.20;;;;;;;;;;4982153;28;20470;-75
2023/12/13 16:12:49;;;;;;;6.50;3.90;;;;;;;;;;4992791;28;20465;-75
2023/12/13 16:15:15;;;;;;;14.73;5.87;;;;;;;;;;4993083;28;20561;-74
2023/12/13 16:17:42;;;;;;;7.00;4.17;;;;;;;;;;4993379;28;20411;-75
2023/12/13 16:20:09;;;;;;;6.33;3.40;;;;;;;;;;4985807;28;20779;-76
2023/12/13 16:22:35;;;;;;;7.63;4.07;;;;;;;;;;4988441;28;20430;-76
2023/12/13 16:25:01;;;;;;;6.43;3.30;;;;;;;;;;4984637;28;20447;-76
2023/12/13 16:27:27;;;;;;;6.50;4.43;;;;;;;;;;4995242;28;20498;-76
2023/12/13 16:29:53;;;;;;;7.33;4.03;;;;;;;;;;4968719;28;20561;-76
2023/12/13 16:32:19;;;;;;;6.80;5.03;;;;;;;;;;4996677;28;20406;-76
2023/12/13 16:34:45;;;;;;;7.60;3.87;;;;;;;;;;4996768;28;20434;-77
2023/12/13 16:37:11;;;;;;;8.30;4.10;;;;;;;;;;4997338;28;20451;-77
2023/12/13 16:39:38;;;;;;;7.23;3.67;;;;;;;;;;4996293;28;20485;-76
2023/12/13 16:42:04;;;;;;;6.30;3.20;;;;;;;;;;4999576;28;20403;-77
2023/12/13 16:44:30;;;;;;;9.37;3.67;;;;;;;;;;4981858;28;20442;-77
2023/12/13 16:46:56;;;;;;;7.63;4.20;;;;;;;;;;4995336;28;20422;-75
2023/12/13 16:49:23;;;;;;;6.87;3.23;;;;;;;;;;4992036;28;20427;-75
2023/12/13 16:51:50;;;;;;;5.20;3.10;;;;;;;;;;4979912;28;20508;-75
2023/12/13 16:54:17;;;;;;;8.00;2.70;;;;;;;;;;4997786;28;20411;-74
2023/12/13 16:56:43;;;;;;;5.03;3.90;;;;;;;;;;4979482;28;20403;-75
2023/12/13 16:59:09;;;;;;;5.00;3.70;;;;;;;;;;4995976;28;20425;-75
2023/12/13 17:01:35;;;;;;;4.43;3.23;;;;;;;;;;4995605;28;20557;-75
2023/12/13 17:04:02;;;;;;;8.10;4.20;;;;;;;;;;4996346;28;20483;-76
2023/12/13 17:06:28;;;;;;;7.37;4.13;;;;;;;;;;4980973;28;20442;-77
2023/12/13 17:08:56;;;;;;;12.63;4.57;;;;;;;;;;4976229;28;20945;-76
2023/12/13 17:11:22;;;;;;;9.07;4.73;;;;;;;;;;5002735;28;20464;-73
2023/12/13 17:13:51;;;;;;;6.33;4.43;;;;;;;;;;4998690;28;20414;-76
2023/12/13 17:16:16;;;;;;;7.10;5.40;;;;;;;;;;4999143;28;21007;-78
2023/12/13 17:18:42;;;;;;;9.93;5.87;;;;;;;;;;4999713;28;20411;-77
2023/12/13 17:21:08;;;;;;;6.93;4.80;;;;;;;;;;4979266;28;20532;-76
2023/12/13 17:23:34;;;;;;;11.90;7.00;;;;;;;;;;4997195;28;20567;-75
2023/12/13 17:26:00;;;;;;;9.10;5.90;;;;;;;;;;4990348;28;20442;-74
2023/12/13 17:28:26;;;;;;;10.80;6.03;;;;;;;;;;4982068;28;20594;-74
2023/12/13 17:30:53;;;;;;;8.30;4.63;;;;;;;;;;4988533;28;20471;-74
2023/12/13 17:33:19;;;;;;;10.63;6.10;;;;;;;;;;4993015;28;20415;-75
2023/12/13 17:35:46;;;;;;;12.97;6.70;;;;;;;;;;4979915;28;20814;-74
2023/12/13 17:38:12;;;;;;;8.30;4.90;;;;;;;;;;4975415;28;20427;-72
2023/12/13 17:40:38;;;;;;;7.60;5.03;;;;;;;;;;4977191;28;20431;-73
2023/12/13 17:43:03;;;;;;;13.30;5.30;;;;;;;;;;4988056;28;20423;-73
2023/12/13 17:45:29;;;;;;;9.47;5.50;;;;;;;;;;4986876;28;20688;-73
2023/12/13 17:47:55;;;;;;;6.23;4.60;;;;;;;;;;4994831;28;20454;-72
2023/12/13 17:50:23;;;;;;;14.00;6.27;;;;;;;;;;4984298;28;20467;-72
2023/12/13 17:52:49;;;;;;;18.27;10.23;;;;;;;;;;4975683;28;20408;-72
2023/12/13 17:55:16;;;;;;;14.10;8.20;;;;;;;;;;4975539;28;20801;-72
2023/12/13 17:57:43;;;;;;;10.67;6.97;;;;;;;;;;4992636;28;20506;-73
2023/12/13 18:00:09;;;;;;;12.40;7.30;;;;;;;;;;4994335;28;20407;-72
2023/12/13 18:02:35;;;;;;;19.47;9.87;;;;;;;;;;4988626;28;20420;-73
2023/12/13 18:05:01;;;;;;;21.37;12.00;;;;;;;;;;4991077;28;20534;-72
2023/12/13 18:07:31;;;;;;;18.13;7.67;;;;;;;;;;4994828;28;20910;-73
2023/12/13 18:09:57;;;;;;;13.83;7.00;;;;;;;;;;4977015;28;20454;-72
2023/12/13 18:12:24;;;;;;;16.30;7.80;;;;;;;;;;4994648;28;20419;-72
2023/12/13 18:14:50;;;;;;;22.13;9.03;;;;;;;;;;5064826;23;20461;-75
2023/12/13 18:17:16;;;;;;;20.57;11.30;;;;;;;;;;5034724;28;20949;-75
2023/12/13 18:19:41;;;;;;;21.23;12.37;;;;;;;;;;5038666;28;20472;-75
2023/12/13 18:22:07;;;;;;;28.40;12.43;;;;;;;;;;5021135;28;20783;-74
2023/12/13 18:24:33;;;;;;;20.43;12.03;;;;;;;;;;5026349;28;20892;-75
2023/12/13 18:26:59;;;;;;;20.17;10.77;;;;;;;;;;5012870;28;20998;-76
2023/12/13 18:29:25;;;;;;;21.50;9.27;;;;;;;;;;5037705;28;20892;-75
2023/12/13 18:31:52;;;;;;;16.50;8.60;;;;;;;;;;5023637;28;20921;-76
2023/12/13 18:34:18;;;;;;;15.20;9.00;;;;;;;;;;5018930;28;20418;-75
2023/12/13 18:36:44;;;;;;;15.50;8.93;;;;;;;;;;5019078;28;20468;-75
2023/12/13 18:39:10;;;;;;;17.10;8.80;;;;;;;;;;5037701;28;20432;-74
2023/12/13 18:41:36;;;;;;;16.27;8.10;;;;;;;;;;5029756;28;20515;-75
2023/12/13 18:44:02;;;;;;;18.37;9.13;;;;;;;;;;5032941;28;20448;-74
2023/12/13 18:46:28;;;;;;;27.10;11.87;;;;;;;;;;5009438;28;20441;-75
2023/12/13 18:48:54;;;;;;;14.07;9.10;;;;;;;;;;5017386;28;20482;-76
2023/12/13 18:51:20;;;;;;;17.63;9.90;;;;;;;;;;5000574;28;20465;-75
2023/12/13 18:53:46;;;;;;;13.90;9.23;;;;;;;;;;5018094;28;20831;-74
2023/12/13 18:56:12;;;;;;;14.87;9.33;;;;;;;;;;5029012;28;20500;-70
2023/12/13 18:58:38;;;;;;;17.63;10.13;;;;;;;;;;5021024;28;20751;-68
2023/12/13 19:01:04;;;;;;;24.23;11.43;;;;;;;;;;5019201;28;20422;-72
2023/12/13 19:03:32;;;;;;;23.63;13.70;;;;;;;;;;5002759;28;20411;-69
2023/12/13 19:05:59;;;;;;;26.77;14.93;;;;;;;;;;5033258;28;20445;-70
2023/12/13 19:08:25;;;;;;;22.20;11.37;;;;;;;;;;5026343;28;20893;-69
2023/12/13 19:10:50;;;;;;;24.97;14.83;;;;;;;;;;5028350;28;20522;-68
2023/12/13 19:13:16;;;;;;;27.63;14.27;;;;;;;;;;5032870;28;20456;-70
2023/12/13 19:15:43;;;;;;;21.00;13.50;;;;;;;;;;5013568;28;20454;-70
2023/12/13 19:18:09;;;;;;;28.13;14.80;;;;;;;;;;5022799;28;20903;-70
2023/12/13 19:20:35;;;;;;;26.13;13.07;;;;;;;;;;5016836;28;20507;-75
2023/12/13 19:23:01;;;;;;;32.27;14.37;;;;;;;;;;5015339;28;20453;-77
2023/12/13 19:25:27;;;;;;;27.17;15.20;;;;;;;;;;5040168;28;20436;-77
2023/12/13 19:27:53;;;;;;;28.90;16.97;;;;;;;;;;5034880;28;20440;-78
2023/12/13 19:30:19;;;;;;;28.47;15.50;;;;;;;;;;5031520;28;20501;-78
2023/12/13 19:32:45;;;;;;;26.80;14.50;;;;;;;;;;5031232;28;20418;-77
2023/12/13 19:35:11;;;;;;;31.23;16.40;;;;;;;;;;4997917;28;20450;-77
2023/12/13 19:37:38;;;;;;;36.53;16.23;;;;;;;;;;4997885;28;20450;-77
2023/12/13 19:40:05;;;;;;;27.97;14.57;;;;;;;;;;4997730;28;20422;-77
2023/12/13 19:42:30;;;;;;;25.77;14.37;;;;;;;;;;5017492;28;20461;-77
2023/12/13 19:44:56;;;;;;;29.53;16.20;;;;;;;;;;5016301;28;20440;-77
2023/12/13 19:47:22;;;;;;;27.70;14.70;;;;;;;;;;5016194;28;20418;-77
2023/12/13 19:49:48;;;;;;;23.90;13.33;;;;;;;;;;5014555;28;20449;-77
2023/12/13 19:52:14;;;;;;;27.70;13.53;;;;;;;;;;4999057;28;20414;-77
2023/12/13 19:54:40;;;;;;;22.40;12.53;;;;;;;;;;5023826;28;20417;-76
2023/12/13 19:57:06;;;;;;;25.17;12.33;;;;;;;;;;5034384;28;20495;-77
2023/12/13 19:59:32;;;;;;;24.40;13.03;;;;;;;;;;5035004;28;20471;-79
2023/12/13 20:01:58;;;;;;;32.33;14.53;;;;;;;;;;5040668;28;20424;-78
2023/12/13 20:04:24;;;;;;;31.27;15.10;;;;;;;;;;5022068;28;20428;-78
2023/12/13 20:06:50;;;;;;;29.80;14.03;;;;;;;;;;5005040;28;20425;-78
2023/12/13 20:09:17;;;;;;;24.93;12.80;;;;;;;;;;5015084;28;20422;-78
2023/12/13 20:11:46;;;;;;;29.40;14.90;;;;;;;;;;5014518;28;20548;-78
2023/12/13 20:14:14;;;;;;;26.63;14.57;;;;;;;;;;4996795;28;21043;-78
2023/12/13 20:16:40;;;;;;;24.00;12.73;;;;;;;;;;4996377;28;20507;-78
2023/12/13 20:19:06;;;;;;;20.20;10.50;;;;;;;;;;5014114;28;20500;-78
2023/12/13 20:21:32;;;;;;;14.33;8.73;;;;;;;;;;5014562;28;20406;-77
2023/12/13 20:24:01;;;;;;;21.90;8.83;;;;;;;;;;5013952;28;20421;-78
2023/12/13 20:26:27;;;;;;;15.40;7.40;;;;;;;;;;4996083;28;20442;-78
2023/12/13 20:28:53;;;;;;;17.30;7.53;;;;;;;;;;4996218;28;20437;-78
2023/12/13 20:31:19;;;;;;;19.30;9.67;;;;;;;;;;5020252;28;20472;-78
2023/12/13 20:33:45;;;;;;;11.80;7.97;;;;;;;;;;5025592;28;20434;-78